createdAt,value
2022-12-01T00:01:33.537Z,100080.38
2022-12-01T00:04:01.082Z,100073.41
2022-12-01T00:06:28.600Z,100063.66
2022-12-01T00:09:19.547Z,100064.72
2022-12-01T00:11:48.424Z,100057.50
2022-12-01T00:14:16.525Z,100069.78
2022-12-01T00:16:45.625Z,100057.84
2022-12-01T00:19:13.412Z,100058.50
2022-12-01T00:21:41.082Z,100055.44
2022-12-01T00:24:10.670Z,100064.59
2022-12-01T00:26:38.955Z,100059.75
2022-12-01T00:29:06.489Z,100062.34
2022-12-01T00:31:34.138Z,100057.22
2022-12-01T00:34:05.708Z,100054.38
2022-12-01T00:36:37.078Z,100048.34
2022-12-01T00:39:07.660Z,100047.84
2022-12-01T00:41:35.760Z,100050.94
2022-12-01T00:44:03.238Z,100047.31
2022-12-01T00:46:30.800Z,100044.44
2022-12-01T00:48:58.427Z,100041.50
2022-12-01T00:51:25.941Z,100041.34
2022-12-01T00:53:53.549Z,100038.84
2022-12-01T00:56:21.215Z,100043.34
2022-12-01T00:58:48.762Z,100045.38
2022-12-01T01:01:16.379Z,100042.59
2022-12-01T01:03:43.918Z,100035.00
2022-12-01T01:06:13.063Z,100035.16
2022-12-01T01:08:41.025Z,100047.00
2022-12-01T01:11:09.625Z,100040.50
2022-12-01T01:13:38.444Z,100033.22
2022-12-01T01:16:17.032Z,100038.63
2022-12-01T01:18:44.757Z,100024.34
2022-12-01T01:21:16.592Z,100017.06
2022-12-01T01:23:44.872Z,100028.00
2022-12-01T01:26:20.569Z,100023.81
2022-12-01T01:28:49.477Z,100024.38
2022-12-01T01:31:21.868Z,100014.44
2022-12-01T01:33:50.746Z,100022.28
2022-12-01T01:36:19.834Z,100019.97
2022-12-01T01:38:48.131Z,100014.19
2022-12-01T01:41:16.154Z,100002.88
2022-12-01T01:43:55.294Z,99997.38
2022-12-01T01:46:29.938Z,100008.94
2022-12-01T01:49:11.961Z,99994.09
2022-12-01T01:51:49.679Z,99996.16
2022-12-01T01:54:33.752Z,100000.13
2022-12-01T01:57:03.189Z,100003.00
2022-12-01T01:59:37.470Z,99988.34
2022-12-01T02:02:09.477Z,99999.19
2022-12-01T02:04:45.576Z,100003.75
2022-12-01T02:07:18.489Z,99989.72
2022-12-01T02:09:46.599Z,99989.31
2022-12-01T02:12:47.017Z,99991.97
2022-12-01T02:15:23.086Z,99992.50
2022-12-01T02:18:42.620Z,99998.47
2022-12-01T02:21:43.171Z,99994.03
2022-12-01T02:24:40.518Z,99992.47
2022-12-01T02:27:32.333Z,99989.78
2022-12-01T02:30:31.894Z,99985.91
2022-12-01T02:33:15.299Z,99983.59
2022-12-01T02:36:11.019Z,99981.97
2022-12-01T02:39:08.137Z,99973.97
2022-12-01T02:41:48.269Z,99972.03
2022-12-01T02:44:39.210Z,99969.53
2022-12-01T02:47:17.955Z,99964.59
2022-12-01T02:49:52.086Z,99965.56
2022-12-01T02:52:23.027Z,99964.25
2022-12-01T02:54:51.080Z,99960.41
2022-12-01T02:57:18.666Z,99959.69
2022-12-01T02:59:53.634Z,99959.06
2022-12-01T03:02:54.023Z,99962.63
2022-12-01T03:05:41.779Z,99958.94
2022-12-01T03:08:22.614Z,99966.59
2022-12-01T03:10:56.652Z,99970.34
2022-12-01T03:13:36.016Z,99963.13
2022-12-01T03:16:09.479Z,99960.56
2022-12-01T03:18:54.801Z,99963.16
2022-12-01T03:21:32.190Z,99961.41
2022-12-01T03:24:06.545Z,99956.75
2022-12-01T03:26:37.529Z,99949.97
2022-12-01T03:29:14.989Z,99956.91
2022-12-01T03:31:53.455Z,99958.72
2022-12-01T03:34:37.713Z,99961.81
2022-12-01T03:37:22.028Z,99955.81
2022-12-01T03:39:53.734Z,99959.47
2022-12-01T03:42:45.099Z,99960.50
2022-12-01T03:45:27.644Z,99956.38
2022-12-01T03:47:55.410Z,99959.66
2022-12-01T03:50:33.783Z,99956.69
2022-12-01T03:53:19.362Z,99961.34
2022-12-01T03:55:56.427Z,99956.75
2022-12-01T03:58:36.109Z,99956.69
2022-12-01T04:01:04.942Z,99951.41
2022-12-01T04:03:33.207Z,99956.13
2022-12-01T04:06:00.951Z,99959.06
2022-12-01T04:08:30.725Z,99955.84
2022-12-01T04:10:58.326Z,99959.47
2022-12-01T04:13:26.865Z,99966.31
2022-12-01T04:15:55.688Z,99967.63
2022-12-01T04:18:23.219Z,99962.94
2022-12-01T04:20:51.411Z,99964.88
2022-12-01T04:23:37.297Z,99961.34
2022-12-01T04:26:08.968Z,99965.53
2022-12-01T04:28:38.830Z,99973.16
2022-12-01T04:31:06.537Z,99975.50
2022-12-01T04:33:34.091Z,99975.78
2022-12-01T04:36:02.047Z,99980.88
2022-12-01T04:38:31.097Z,99981.41
2022-12-01T04:40:59.019Z,99979.41
2022-12-01T04:43:26.546Z,99980.34
2022-12-01T04:45:54.132Z,99980.84
2022-12-01T04:48:21.634Z,99977.75
2022-12-01T04:50:50.538Z,99987.50
2022-12-01T04:53:18.037Z,99983.53
2022-12-01T04:55:45.655Z,99983.19
2022-12-01T04:58:13.169Z,99980.03
2022-12-01T05:00:40.785Z,99979.59
2022-12-01T05:03:13.546Z,99982.53
2022-12-01T05:05:42.498Z,99978.81
2022-12-01T05:08:11.827Z,99981.44
2022-12-01T05:10:39.834Z,99984.84
2022-12-01T05:13:07.634Z,99982.81
2022-12-01T05:15:35.169Z,99989.47
2022-12-01T05:18:02.664Z,99985.50
2022-12-01T05:20:48.555Z,99980.47
2022-12-01T05:23:17.187Z,99982.41
2022-12-01T05:25:44.866Z,99988.66
2022-12-01T05:28:12.304Z,99988.16
2022-12-01T05:30:40.808Z,99985.50
2022-12-01T05:33:08.350Z,99981.66
2022-12-01T05:35:36.211Z,99989.22
2022-12-01T05:38:08.021Z,99985.16
2022-12-01T05:40:37.415Z,99982.34
2022-12-01T05:43:05.668Z,99990.31
2022-12-01T05:45:34.285Z,99993.44
2022-12-01T05:48:03.031Z,99987.38
2022-12-01T05:50:31.343Z,99992.19
2022-12-01T05:52:58.876Z,99992.75
2022-12-01T05:55:26.334Z,99994.81
2022-12-01T05:57:53.838Z,99992.91
2022-12-01T06:00:21.794Z,100000.03
2022-12-01T06:02:49.414Z,100000.03
2022-12-01T06:05:16.974Z,99998.19
2022-12-01T06:07:44.861Z,100001.03
2022-12-01T06:10:12.930Z,100013.06
2022-12-01T06:12:40.668Z,100016.16
2022-12-01T06:15:09.013Z,100015.03
2022-12-01T06:17:40.202Z,100012.50
2022-12-01T06:20:09.760Z,100013.25
2022-12-01T06:22:37.301Z,100006.53
2022-12-01T06:25:05.476Z,100012.31
2022-12-01T06:27:35.579Z,100007.69
2022-12-01T06:30:04.194Z,100008.47
2022-12-01T06:32:31.939Z,100010.84
2022-12-01T06:34:59.649Z,100010.06
2022-12-01T06:37:28.679Z,100004.09
2022-12-01T06:39:56.310Z,100007.75
2022-12-01T06:47:38.864Z,100010.19
2022-12-01T06:50:08.874Z,100014.06
2022-12-01T06:52:37.860Z,100013.03
2022-12-01T06:55:07.028Z,100015.13
2022-12-01T06:57:34.926Z,100012.00
2022-12-01T07:00:04.281Z,100008.31
2022-12-01T07:02:32.204Z,100015.53
2022-12-01T07:04:59.690Z,100008.78
2022-12-01T07:07:27.332Z,100011.38
2022-12-01T07:09:54.821Z,100014.97
2022-12-01T07:12:22.414Z,100019.59
2022-12-01T07:14:49.890Z,100011.09
2022-12-01T07:17:17.447Z,100018.63
2022-12-01T07:19:44.913Z,100026.19
2022-12-01T07:22:12.499Z,100022.53
2022-12-01T07:24:40.087Z,100017.03
2022-12-01T07:27:07.622Z,100010.03
2022-12-01T07:29:35.170Z,100018.16
2022-12-01T07:32:02.639Z,100006.84
2022-12-01T07:34:30.149Z,100022.31
2022-12-01T07:36:57.645Z,100017.41
2022-12-01T07:39:25.473Z,100021.44
2022-12-01T07:41:53.018Z,100029.00
2022-12-01T07:44:20.485Z,100018.41
2022-12-01T07:46:48.080Z,100020.22
2022-12-01T07:49:15.751Z,100022.16
2022-12-01T07:51:43.418Z,100015.44
2022-12-01T07:54:14.365Z,100014.78
2022-12-01T07:56:42.015Z,100024.81
2022-12-01T07:59:09.990Z,100020.06
2022-12-01T08:01:42.897Z,100020.63
2022-12-01T08:04:12.276Z,100019.47
2022-12-01T08:06:39.804Z,100023.47
2022-12-01T08:09:07.498Z,100022.00
2022-12-01T08:11:35.993Z,100022.72
2022-12-01T08:14:03.709Z,100023.28
2022-12-01T08:16:31.614Z,100026.63
2022-12-01T08:18:59.166Z,100024.78
2022-12-01T08:21:26.912Z,100028.91
2022-12-01T08:23:58.513Z,100021.72
2022-12-01T08:26:27.712Z,100025.94
2022-12-01T08:28:55.434Z,100025.97
2022-12-01T08:31:37.887Z,100029.19
2022-12-01T08:34:08.790Z,100019.63
2022-12-01T08:36:39.385Z,100020.06
2022-12-01T08:39:09.243Z,100007.63
2022-12-01T08:41:36.847Z,100007.94
2022-12-01T08:44:04.435Z,100004.69
2022-12-01T08:46:35.260Z,100010.50
2022-12-01T08:49:05.493Z,100006.63
2022-12-01T08:51:33.863Z,100005.78
2022-12-01T08:54:02.091Z,99999.03
2022-12-01T08:56:42.697Z,100001.97
2022-12-01T08:59:10.404Z,99998.63
2022-12-01T09:01:54.030Z,99993.16
2022-12-01T09:04:24.670Z,99990.75
2022-12-01T09:06:54.619Z,99993.41
2022-12-01T09:09:28.669Z,99984.50
2022-12-01T09:11:56.922Z,99989.59
2022-12-01T09:14:24.641Z,99988.16
2022-12-01T09:16:52.451Z,99988.00
2022-12-01T09:19:24.667Z,99987.56
2022-12-01T09:21:54.165Z,99981.22
2022-12-01T09:24:22.134Z,99982.69
2022-12-01T09:26:57.196Z,99983.31
2022-12-01T09:29:25.350Z,99977.47
2022-12-01T09:31:57.446Z,99977.66
2022-12-01T09:34:25.514Z,99970.88
2022-12-01T09:36:58.674Z,99971.09
2022-12-01T09:39:26.650Z,99967.91
2022-12-01T09:41:58.623Z,99968.25
2022-12-01T09:44:38.045Z,99968.25
2022-12-01T09:47:35.867Z,99960.53
2022-12-01T09:50:12.460Z,99951.72
2022-12-01T09:52:53.410Z,99957.28
2022-12-01T09:55:24.709Z,99948.53
2022-12-01T09:58:01.648Z,99951.00
2022-12-01T10:00:37.142Z,99954.66
2022-12-01T10:03:40.512Z,99944.44
2022-12-01T10:06:32.280Z,99945.66
2022-12-01T10:09:17.609Z,99945.78
2022-12-01T10:11:47.857Z,99947.50
2022-12-01T10:14:20.406Z,99948.09
2022-12-01T10:17:16.011Z,99951.03
2022-12-01T10:19:59.452Z,99949.59
2022-12-01T10:22:54.021Z,99950.72
2022-12-01T10:25:33.192Z,99946.47
2022-12-01T10:28:37.030Z,99954.06
2022-12-01T10:31:18.363Z,99946.59
2022-12-01T10:34:08.034Z,99951.69
2022-12-01T10:36:35.660Z,99942.72
2022-12-01T10:39:06.795Z,99944.78
2022-12-01T10:41:37.774Z,99940.97
2022-12-01T10:44:07.578Z,99938.22
2022-12-01T10:47:21.162Z,99944.31
2022-12-01T10:49:50.742Z,99938.69
2022-12-01T10:52:35.051Z,99939.84
2022-12-01T10:55:27.918Z,99930.75
2022-12-01T10:57:58.324Z,99925.56
2022-12-01T11:03:35.799Z,99921.47
2022-12-01T11:06:06.660Z,99918.97
2022-12-01T11:08:58.100Z,99927.19
2022-12-01T11:11:38.739Z,99928.50
2022-12-01T11:14:22.850Z,99917.44
2022-12-01T11:16:53.941Z,99917.19
2022-12-01T11:19:34.777Z,99911.69
2022-12-01T11:22:42.173Z,99912.16
2022-12-01T11:25:21.801Z,99915.78
2022-12-01T11:27:54.291Z,99909.38
2022-12-01T11:30:27.058Z,99913.22
2022-12-01T11:32:58.642Z,99906.25
2022-12-01T11:35:32.107Z,99909.47
2022-12-01T11:40:56.652Z,99909.63
2022-12-01T11:43:37.341Z,99904.56
2022-12-01T11:46:08.326Z,99902.47
2022-12-01T11:48:36.882Z,99902.50
2022-12-01T11:51:32.071Z,99903.38
2022-12-01T11:54:18.798Z,99907.50
2022-12-01T11:56:56.158Z,99907.53
2022-12-01T11:59:36.526Z,99908.50
2022-12-01T12:02:35.196Z,99907.69
2022-12-01T12:05:28.801Z,99906.78
2022-12-01T12:08:36.154Z,99906.66
2022-12-01T12:11:17.787Z,99900.25
2022-12-01T12:14:33.492Z,99904.75
2022-12-01T12:17:23.216Z,99907.13
2022-12-01T12:20:11.350Z,99901.84
2022-12-01T12:23:21.515Z,99906.78
2022-12-01T12:26:15.917Z,99910.66
2022-12-01T12:29:18.563Z,99909.03
2022-12-01T12:32:00.588Z,99914.50
2022-12-01T12:34:52.848Z,99912.16
2022-12-01T12:37:30.070Z,99909.75
2022-12-01T12:40:28.271Z,99911.47
2022-12-01T12:43:29.314Z,99909.09
2022-12-01T12:46:32.232Z,99914.66
2022-12-01T12:49:39.734Z,99909.00
2022-12-01T12:52:40.703Z,99906.66
2022-12-01T12:55:50.163Z,99906.47
2022-12-01T12:58:37.522Z,99906.94
2022-12-01T13:01:29.417Z,99901.56
2022-12-01T13:04:06.891Z,99894.00
2022-12-01T13:06:52.612Z,99899.88
2022-12-01T13:09:36.505Z,99893.88
2022-12-01T13:12:25.968Z,99892.88
2022-12-01T13:15:01.433Z,99889.94
2022-12-01T13:17:37.485Z,99894.84
2022-12-01T13:20:07.905Z,99890.44
2022-12-01T13:22:38.064Z,99891.63
2022-12-01T13:25:06.490Z,99894.03
2022-12-01T13:27:40.708Z,99890.84
2022-12-01T13:30:20.765Z,99892.69
2022-12-01T13:32:49.661Z,99896.59
2022-12-01T13:35:39.943Z,99901.66
2022-12-01T13:38:31.343Z,99893.13
2022-12-01T13:41:40.376Z,99898.41
2022-12-01T13:44:43.334Z,99895.50
2022-12-01T13:47:10.912Z,99892.75
2022-12-01T13:49:46.564Z,99897.97
2022-12-01T13:52:26.150Z,99894.84
2022-12-01T13:55:28.895Z,99891.50
2022-12-01T13:57:59.147Z,99897.44
2022-12-01T14:00:34.680Z,99904.44
2022-12-01T14:03:16.823Z,99904.75
2022-12-01T14:06:08.809Z,99896.84
2022-12-01T14:08:49.367Z,99897.09
2022-12-01T14:11:19.705Z,99900.19
2022-12-01T14:14:00.179Z,99898.13
2022-12-01T14:16:46.324Z,99897.75
2022-12-01T14:19:41.420Z,99900.28
2022-12-01T14:22:44.224Z,99908.00
2022-12-01T14:25:20.429Z,99909.75
2022-12-01T14:27:52.195Z,99905.50
2022-12-01T14:30:41.962Z,99909.50
2022-12-01T14:33:42.665Z,99911.13
2022-12-01T14:36:32.477Z,99911.69
2022-12-01T14:39:33.225Z,99910.22
2022-12-01T14:42:10.565Z,99910.28
2022-12-01T14:44:54.816Z,99916.19
2022-12-01T14:47:28.034Z,99911.28
2022-12-01T14:50:21.308Z,99916.78
2022-12-01T14:53:02.587Z,99920.47
2022-12-01T14:55:43.189Z,99919.22
2022-12-01T14:58:31.332Z,99923.50
2022-12-01T15:01:02.832Z,99916.66
2022-12-01T15:04:02.485Z,99926.16
2022-12-01T15:06:33.675Z,99928.34
2022-12-01T15:09:34.166Z,99922.13
2022-12-01T15:12:07.674Z,99924.59
2022-12-01T15:14:50.160Z,99926.19
2022-12-01T15:17:32.626Z,99921.50
2022-12-01T15:20:00.400Z,99922.13
2022-12-01T15:22:31.820Z,99925.44
2022-12-01T15:25:15.700Z,99923.72
2022-12-01T15:27:44.205Z,99923.91
2022-12-01T15:30:16.518Z,99933.00
2022-12-01T15:32:51.532Z,99933.03
2022-12-01T15:35:23.872Z,99934.94
2022-12-01T15:37:58.563Z,99938.25
2022-12-01T15:41:13.405Z,99944.50
2022-12-01T15:43:39.936Z,99940.63
2022-12-01T15:46:15.699Z,99940.25
2022-12-01T15:48:46.757Z,99936.19
2022-12-01T15:51:34.728Z,99941.31
2022-12-01T15:54:10.018Z,99949.41
2022-12-01T15:56:41.418Z,99949.72
2022-12-01T15:59:13.331Z,99933.13
2022-12-01T16:01:44.012Z,99942.94
2022-12-01T16:04:24.769Z,99944.97
2022-12-01T16:07:06.646Z,99949.91
2022-12-01T16:09:41.164Z,99954.13
2022-12-01T16:12:18.690Z,99950.75
2022-12-01T16:15:04.114Z,99947.63
2022-12-01T16:17:52.959Z,99952.38
2022-12-01T16:20:40.297Z,99956.34
2022-12-01T16:23:22.877Z,99956.66
2022-12-01T16:26:01.871Z,99952.16
2022-12-01T16:28:36.725Z,99961.03
2022-12-01T16:31:12.615Z,99956.63
2022-12-01T16:33:44.831Z,99964.59
2022-12-01T16:36:17.003Z,99962.69
2022-12-01T16:38:45.021Z,99962.63
2022-12-01T16:41:38.277Z,99959.09
2022-12-01T16:44:27.932Z,99960.94
2022-12-01T16:46:57.635Z,99967.75
2022-12-01T16:49:26.488Z,99976.81
2022-12-01T16:51:58.152Z,99970.59
2022-12-01T16:54:28.735Z,99971.94
2022-12-01T16:56:57.633Z,99977.31
2022-12-01T16:59:26.022Z,99973.22
2022-12-01T17:01:53.691Z,99977.53
2022-12-01T17:04:21.430Z,99984.34
2022-12-01T17:06:50.432Z,99986.34
2022-12-01T17:09:20.083Z,99985.78
2022-12-01T17:11:47.698Z,99992.97
2022-12-01T17:14:35.414Z,99986.09
2022-12-01T17:17:04.611Z,99992.31
2022-12-01T17:19:36.089Z,99997.84
2022-12-01T17:22:03.728Z,99992.31
2022-12-01T17:24:31.820Z,99997.94
2022-12-01T17:27:11.022Z,100000.97
2022-12-01T17:29:45.751Z,99999.09
2022-12-01T17:32:17.585Z,100002.56
2022-12-01T17:34:48.321Z,100001.63
2022-12-01T17:37:23.969Z,100009.97
2022-12-01T17:39:55.706Z,100005.75
2022-12-01T17:42:25.215Z,100013.66
2022-12-01T17:44:59.491Z,100012.78
2022-12-01T17:47:30.070Z,100014.56
2022-12-01T17:50:05.542Z,100010.81
2022-12-01T17:52:35.272Z,100012.53
2022-12-01T17:55:11.166Z,100012.41
2022-12-01T17:57:50.118Z,100014.13
2022-12-01T18:00:41.483Z,100012.22
2022-12-01T18:03:37.692Z,100012.28
2022-12-01T18:06:06.116Z,100010.19
2022-12-01T18:08:41.273Z,100010.19
2022-12-01T18:11:16.747Z,100010.75
2022-12-01T18:14:06.821Z,100016.25
2022-12-01T18:16:38.317Z,100012.34
2022-12-01T18:19:22.240Z,100010.28
2022-12-01T18:21:51.148Z,100007.88
2022-12-01T18:24:43.495Z,100011.03
2022-12-01T18:27:15.255Z,100007.63
2022-12-01T18:29:50.088Z,100009.38
2022-12-01T18:32:18.457Z,100010.84
2022-12-01T18:34:46.185Z,100010.41
2022-12-01T18:37:14.015Z,100014.88
2022-12-01T18:39:42.479Z,100020.13
2022-12-01T18:42:12.086Z,100011.22
2022-12-01T18:44:45.088Z,100013.56
2022-12-01T18:47:34.863Z,100016.94
2022-12-01T18:50:05.889Z,100019.34
2022-12-01T18:52:39.086Z,100029.75
2022-12-01T18:57:52.284Z,100024.78
2022-12-01T19:00:22.962Z,100024.06
2022-12-01T19:02:56.865Z,100024.28
2022-12-01T19:05:27.022Z,100031.09
2022-12-01T19:07:57.961Z,100020.38
2022-12-01T19:10:30.838Z,100026.94
2022-12-01T19:13:27.641Z,100030.31
2022-12-01T19:15:59.770Z,100034.75
2022-12-01T19:18:30.497Z,100033.19
2022-12-01T19:21:12.565Z,100037.31
2022-12-01T19:23:42.455Z,100038.09
2022-12-01T19:26:22.491Z,100031.88
2022-12-01T19:28:54.854Z,100040.97
2022-12-01T19:31:26.725Z,100036.28
2022-12-01T19:33:56.646Z,100033.41
2022-12-01T19:36:46.914Z,100040.41
2022-12-01T19:39:20.988Z,100038.28
2022-12-01T19:42:14.790Z,100035.19
2022-12-01T19:45:06.275Z,100021.09
2022-12-01T19:50:25.509Z,100034.19
2022-12-01T19:52:56.701Z,100026.38
2022-12-01T19:58:12.958Z,100033.66
2022-12-01T20:00:44.017Z,100026.38
2022-12-01T20:03:14.680Z,100028.97
2022-12-01T20:05:45.837Z,100028.75
2022-12-01T20:08:19.415Z,100034.97
2022-12-01T20:10:54.094Z,100032.88
2022-12-01T20:13:22.276Z,100039.38
2022-12-01T20:15:53.179Z,100022.72
2022-12-01T20:18:24.404Z,100035.94
2022-12-01T20:21:07.197Z,100027.78
2022-12-01T20:23:40.386Z,100030.94
2022-12-01T20:26:12.320Z,100036.19
2022-12-01T20:28:42.781Z,100031.03
2022-12-01T20:31:25.555Z,100042.00
2022-12-01T20:33:58.060Z,100041.47
2022-12-01T20:36:29.460Z,100040.97
2022-12-01T20:39:08.923Z,100045.63
2022-12-01T20:41:39.131Z,100048.47
2022-12-01T20:44:12.856Z,100057.63
2022-12-01T20:46:47.830Z,100046.06
2022-12-01T20:49:18.639Z,100052.41
2022-12-01T20:51:53.333Z,100055.56
2022-12-01T20:54:28.714Z,100047.75
2022-12-01T20:57:04.973Z,100052.44
2022-12-01T20:59:36.899Z,100053.94
2022-12-01T21:02:07.676Z,100051.06
2022-12-01T21:04:59.157Z,100051.91
2022-12-01T21:07:30.812Z,100054.53
2022-12-01T21:09:59.947Z,100051.94
2022-12-01T21:12:53.519Z,100052.44
2022-12-01T21:15:32.152Z,100054.28
2022-12-01T21:18:09.303Z,100057.16
2022-12-01T21:20:48.959Z,100063.09
2022-12-01T21:23:22.668Z,100059.22
2022-12-01T21:25:51.330Z,100059.72
2022-12-01T21:28:33.421Z,100059.22
2022-12-01T21:31:19.511Z,100061.31
2022-12-01T21:33:48.200Z,100066.78
2022-12-01T21:36:20.887Z,100072.47
2022-12-01T21:38:59.718Z,100065.97
2022-12-01T21:41:32.742Z,100067.56
2022-12-01T21:44:18.787Z,100066.00
2022-12-01T21:46:50.744Z,100071.75
2022-12-01T21:49:33.568Z,100080.88
2022-12-01T21:52:14.664Z,100080.34
2022-12-01T21:54:44.840Z,100080.91
2022-12-01T21:57:49.873Z,100081.63
2022-12-01T22:00:32.998Z,100081.66
2022-12-01T22:03:42.637Z,100086.91
2022-12-01T22:06:36.787Z,100086.91
2022-12-01T22:09:37.000Z,100087.66
2022-12-01T22:12:26.922Z,100077.72
2022-12-01T22:15:04.744Z,100090.75
2022-12-01T22:17:33.946Z,100081.13
2022-12-01T22:20:05.678Z,100085.72
2022-12-01T22:22:36.617Z,100083.31
2022-12-01T22:25:26.186Z,100079.03
2022-12-01T22:27:54.617Z,100072.50
2022-12-01T22:30:24.049Z,100074.34
2022-12-01T22:33:06.076Z,100072.88
2022-12-01T22:35:48.400Z,100067.69
2022-12-01T22:38:38.493Z,100069.91
2022-12-01T22:41:15.324Z,100065.00
2022-12-01T22:43:56.564Z,100060.22
2022-12-01T22:46:30.637Z,100065.25
2022-12-01T22:49:02.097Z,100061.53
2022-12-01T22:51:51.694Z,100059.25
2022-12-01T22:54:34.894Z,100044.97
2022-12-01T22:57:05.018Z,100048.34
2022-12-01T22:59:39.150Z,100043.94
2022-12-01T23:02:42.030Z,100048.72
2022-12-01T23:05:32.604Z,100044.75
2022-12-01T23:08:12.191Z,100043.94
2022-12-01T23:10:41.885Z,100050.66
2022-12-01T23:13:23.510Z,100048.28
2022-12-01T23:15:54.228Z,100035.06
2022-12-01T23:18:27.069Z,100041.03
2022-12-01T23:21:01.327Z,100048.19
2022-12-01T23:23:35.015Z,100040.56
2022-12-01T23:26:04.950Z,100040.31
2022-12-01T23:28:32.606Z,100047.66
2022-12-01T23:31:03.486Z,100048.13
2022-12-01T23:33:33.246Z,100051.00
2022-12-01T23:36:27.987Z,100042.81
2022-12-01T23:39:04.888Z,100048.03
2022-12-01T23:41:41.965Z,100044.25
2022-12-01T23:44:39.077Z,100048.38
2022-12-01T23:47:25.154Z,100047.13
2022-12-01T23:50:02.942Z,100056.78
2022-12-01T23:52:36.683Z,100062.31
2022-12-01T23:55:23.347Z,100064.44
2022-12-01T23:57:51.273Z,100067.72
